createdAt,value
2022-12-22T00:00:06.194Z,130.80
2022-12-22T00:03:19.505Z,128.90
2022-12-22T00:06:06.332Z,130.70
2022-12-22T00:08:53.125Z,135.20
2022-12-22T00:11:40.239Z,144.50
2022-12-22T00:14:28.679Z,135.90
2022-12-22T00:17:18.733Z,136.50
2022-12-22T00:20:05.413Z,135.90
2022-12-22T00:22:51.868Z,128.60
2022-12-22T00:25:38.595Z,129.60
2022-12-22T00:28:33.295Z,127.30
2022-12-22T00:31:20.075Z,124.40
2022-12-22T00:34:06.871Z,125.00
2022-12-22T00:36:53.825Z,134.80
2022-12-22T00:39:40.755Z,125.00
2022-12-22T00:42:27.592Z,128.90
2022-12-22T00:45:14.159Z,117.80
2022-12-22T00:48:02.294Z,132.60
2022-12-22T00:50:52.769Z,129.80
2022-12-22T00:53:40.085Z,133.40
2022-12-22T00:56:27.729Z,127.70
2022-12-22T00:59:16.475Z,131.60
2022-12-22T01:02:03.586Z,142.40
2022-12-22T01:04:50.360Z,135.60
2022-12-22T01:07:41.047Z,129.60
2022-12-22T01:10:32.969Z,128.30
2022-12-22T01:13:19.603Z,127.60
2022-12-22T01:16:06.541Z,122.30
2022-12-22T01:18:53.167Z,125.80
2022-12-22T01:21:39.899Z,129.70
2022-12-22T01:24:34.798Z,141.80
2022-12-22T01:27:22.489Z,139.80
2022-12-22T01:30:09.214Z,139.80
2022-12-22T01:32:55.761Z,145.30
2022-12-22T01:35:44.860Z,133.10
2022-12-22T01:38:31.577Z,130.70
2022-12-22T01:41:20.799Z,135.80
2022-12-22T01:44:07.890Z,139.50
2022-12-22T01:47:01.487Z,138.10
2022-12-22T01:49:54.538Z,126.60
2022-12-22T01:52:44.828Z,134.10
2022-12-22T01:55:35.780Z,120.10
2022-12-22T01:58:24.543Z,137.70
2022-12-22T02:01:11.549Z,140.40
2022-12-22T02:03:59.987Z,145.40
2022-12-22T02:06:59.482Z,149.60
2022-12-22T02:10:13.693Z,133.30
2022-12-22T02:13:42.608Z,128.10
2022-12-22T02:16:49.997Z,158.20
2022-12-22T02:19:54.904Z,143.40
2022-12-22T02:22:54.077Z,145.90
2022-12-22T02:25:49.225Z,155.30
2022-12-22T02:28:35.821Z,162.70
2022-12-22T02:31:25.165Z,154.70
2022-12-22T02:34:12.112Z,146.50
2022-12-22T02:37:19.137Z,143.40
2022-12-22T02:40:37.249Z,140.30
2022-12-22T02:43:59.619Z,133.20
2022-12-22T02:46:49.365Z,134.00
2022-12-22T02:49:50.046Z,138.20
2022-12-22T02:52:53.358Z,126.60
2022-12-22T02:55:40.631Z,111.10
2022-12-22T02:58:27.563Z,110.00
2022-12-22T03:01:14.356Z,121.30
2022-12-22T03:04:00.932Z,100.80
2022-12-22T03:06:47.585Z,106.30
2022-12-22T03:09:34.203Z,117.80
2022-12-22T03:12:20.841Z,122.30
2022-12-22T03:15:07.709Z,126.40
2022-12-22T03:17:54.341Z,109.70
2022-12-22T03:20:41.013Z,126.40
2022-12-22T03:23:27.560Z,118.30
2022-12-22T03:25:55.756Z,120.10
2022-12-22T03:28:26.951Z,142.20
2022-12-22T03:31:06.316Z,127.30
2022-12-22T03:33:34.498Z,136.80
2022-12-22T03:36:03.034Z,135.70
2022-12-22T03:38:31.447Z,137.20
2022-12-22T03:40:59.585Z,138.80
2022-12-22T03:43:46.399Z,136.60
2022-12-22T03:46:32.230Z,125.70
2022-12-22T03:49:11.378Z,121.50
2022-12-22T03:51:47.938Z,102.00
2022-12-22T03:54:18.966Z,108.00
2022-12-22T03:56:48.865Z,120.50
2022-12-22T03:59:18.070Z,118.80
2022-12-22T04:01:49.261Z,120.40
2022-12-22T04:04:20.619Z,122.20
2022-12-22T04:06:49.146Z,115.90
2022-12-22T04:09:17.906Z,118.60
2022-12-22T04:12:04.517Z,130.70
2022-12-22T04:14:34.648Z,123.00
2022-12-22T04:17:04.833Z,124.60
2022-12-22T04:19:33.554Z,120.30
2022-12-22T04:22:02.050Z,99.20
2022-12-22T04:24:30.046Z,136.60
2022-12-22T04:26:58.314Z,104.20
2022-12-22T04:29:26.486Z,111.10
2022-12-22T04:31:54.813Z,114.00
2022-12-22T04:34:23.092Z,102.80
2022-12-22T04:36:51.262Z,106.40
2022-12-22T04:39:19.523Z,102.90
2022-12-22T04:41:47.551Z,104.70
2022-12-22T04:44:15.574Z,107.20
2022-12-22T04:46:44.074Z,106.90
2022-12-22T04:49:12.585Z,103.70
2022-12-22T04:51:40.925Z,111.00
2022-12-22T04:54:09.212Z,107.30
2022-12-22T04:56:37.274Z,104.70
2022-12-22T04:59:05.291Z,116.90
2022-12-22T05:01:33.542Z,106.40
2022-12-22T05:04:01.979Z,106.00
2022-12-22T05:06:30.119Z,101.60
2022-12-22T05:08:58.444Z,101.40
2022-12-22T05:11:26.501Z,106.40
2022-12-22T05:13:54.628Z,103.00
2022-12-22T05:16:22.787Z,109.00
2022-12-22T05:18:50.780Z,128.70
2022-12-22T05:21:21.374Z,124.30
2022-12-22T05:23:50.583Z,102.30
2022-12-22T05:26:19.794Z,108.10
2022-12-22T05:28:48.363Z,71.70
2022-12-22T05:31:22.148Z,92.80
2022-12-22T05:33:50.912Z,96.40
2022-12-22T05:36:20.115Z,78.30
2022-12-22T05:38:49.000Z,75.60
2022-12-22T05:41:17.571Z,89.70
2022-12-22T05:43:45.891Z,83.90
2022-12-22T05:46:14.463Z,67.60
2022-12-22T05:48:42.785Z,85.60
2022-12-22T05:51:11.463Z,94.50
2022-12-22T05:53:40.828Z,94.00
2022-12-22T05:56:09.346Z,103.20
2022-12-22T05:58:40.383Z,91.30
2022-12-22T06:01:09.448Z,84.60
2022-12-22T06:03:38.155Z,97.90
2022-12-22T06:06:06.702Z,93.90
2022-12-22T06:08:34.957Z,103.30
2022-12-22T06:11:03.268Z,109.30
2022-12-22T06:13:31.632Z,99.20
2022-12-22T06:16:00.286Z,82.50
2022-12-22T06:18:28.595Z,100.00
2022-12-22T06:20:56.833Z,108.90
2022-12-22T06:23:24.867Z,80.30
2022-12-22T06:26:01.906Z,110.90
2022-12-22T06:28:31.472Z,98.90
2022-12-22T06:30:59.721Z,95.60
2022-12-22T06:33:28.054Z,104.10
2022-12-22T06:35:58.926Z,87.10
2022-12-22T06:38:28.535Z,109.10
2022-12-22T06:40:57.160Z,112.50
2022-12-22T06:43:26.288Z,105.30
2022-12-22T06:45:54.823Z,82.20
2022-12-22T06:48:22.920Z,100.50
2022-12-22T06:50:51.371Z,90.20
2022-12-22T06:53:19.650Z,96.10
2022-12-22T06:55:48.160Z,97.20
2022-12-22T06:58:18.959Z,111.70
2022-12-22T07:01:14.180Z,92.90
2022-12-22T07:03:48.670Z,93.80
2022-12-22T07:06:19.762Z,96.50
2022-12-22T07:08:49.120Z,99.20
2022-12-22T07:11:17.864Z,94.80
2022-12-22T07:13:46.145Z,101.60
2022-12-22T07:16:14.320Z,96.00
2022-12-22T07:18:43.223Z,90.30
2022-12-22T07:21:13.329Z,90.50
2022-12-22T07:23:42.001Z,81.50
2022-12-22T07:26:11.477Z,92.30
2022-12-22T07:28:41.476Z,85.00
2022-12-22T07:31:11.628Z,86.80
2022-12-22T07:33:40.243Z,93.10
2022-12-22T07:36:12.883Z,87.70
2022-12-22T07:38:43.588Z,89.10
2022-12-22T07:41:34.274Z,94.10
2022-12-22T07:44:04.339Z,93.70
2022-12-22T07:46:35.694Z,91.60
2022-12-22T07:49:24.211Z,95.80
2022-12-22T07:51:53.409Z,87.60
2022-12-22T07:54:21.775Z,91.90
2022-12-22T07:56:50.750Z,88.70
2022-12-22T07:59:19.118Z,88.00
2022-12-22T08:01:47.928Z,91.70
2022-12-22T08:04:16.549Z,88.90
2022-12-22T08:06:45.208Z,92.10
2022-12-22T08:09:16.133Z,91.80
2022-12-22T08:11:44.568Z,78.40
2022-12-22T08:14:13.646Z,78.90
2022-12-22T08:16:42.515Z,90.50
2022-12-22T08:19:11.540Z,93.40
2022-12-22T08:21:40.145Z,86.10
2022-12-22T08:24:08.959Z,96.00
2022-12-22T08:26:44.152Z,94.90
2022-12-22T08:29:18.011Z,89.70
2022-12-22T08:31:47.390Z,96.90
2022-12-22T08:34:16.815Z,86.40
2022-12-22T08:36:49.796Z,97.50
2022-12-22T08:39:20.390Z,99.10
2022-12-22T08:41:52.892Z,88.60
2022-12-22T08:44:27.627Z,89.50
2022-12-22T08:46:58.273Z,99.70
2022-12-22T08:49:28.081Z,84.20
2022-12-22T08:51:57.096Z,81.10
2022-12-22T08:54:25.666Z,80.90
2022-12-22T08:56:54.183Z,83.30
2022-12-22T08:59:22.535Z,78.30
2022-12-22T09:01:51.500Z,76.80
2022-12-22T09:04:22.597Z,75.00
2022-12-22T09:06:54.198Z,77.00
2022-12-22T09:09:22.829Z,80.40
2022-12-22T09:11:51.356Z,84.90
2022-12-22T09:14:19.933Z,85.00
2022-12-22T09:16:48.361Z,83.90
2022-12-22T09:19:17.215Z,81.30
2022-12-22T09:21:46.448Z,82.70
2022-12-22T09:24:15.444Z,86.60
2022-12-22T09:26:43.832Z,81.60
2022-12-22T09:29:15.956Z,86.50
2022-12-22T09:31:45.197Z,44.50
2022-12-22T09:34:18.057Z,81.20
2022-12-22T09:36:47.935Z,78.30
2022-12-22T09:39:16.851Z,78.90
2022-12-22T09:41:52.091Z,87.70
2022-12-22T09:44:28.066Z,81.20
2022-12-22T09:47:00.543Z,74.30
2022-12-22T09:49:29.415Z,81.40
2022-12-22T09:52:02.867Z,84.00
2022-12-22T09:54:31.949Z,83.30
2022-12-22T09:57:01.765Z,84.40
2022-12-22T09:59:31.381Z,96.10
2022-12-22T10:02:29.251Z,91.10
2022-12-22T10:05:15.465Z,90.30
2022-12-22T10:07:44.773Z,89.00
2022-12-22T10:10:20.127Z,96.00
2022-12-22T10:15:21.857Z,86.30
2022-12-22T10:17:54.500Z,96.90
2022-12-22T10:20:28.432Z,108.70
2022-12-22T10:22:59.542Z,86.80
2022-12-22T10:28:39.848Z,70.30
2022-12-22T10:31:22.062Z,74.90
2022-12-22T10:33:54.435Z,81.60
2022-12-22T10:36:32.418Z,86.50
2022-12-22T10:39:04.616Z,70.50
2022-12-22T10:41:38.595Z,74.00
2022-12-22T10:44:11.654Z,79.30
2022-12-22T10:46:48.526Z,78.00
2022-12-22T10:49:23.988Z,79.10
2022-12-22T10:52:10.383Z,84.30
2022-12-22T10:54:41.433Z,74.40
2022-12-22T10:57:16.767Z,79.20
2022-12-22T11:02:21.428Z,82.50
2022-12-22T11:04:51.649Z,72.80
2022-12-22T11:07:20.740Z,79.00
2022-12-22T11:09:49.189Z,75.10
2022-12-22T11:12:45.103Z,66.60
2022-12-22T11:15:35.634Z,74.80
2022-12-22T11:18:19.012Z,69.70
2022-12-22T11:20:54.393Z,72.10
2022-12-22T11:23:25.852Z,73.60
2022-12-22T11:26:17.554Z,91.70
2022-12-22T11:28:55.092Z,97.10
2022-12-22T11:31:35.404Z,80.50
2022-12-22T11:34:37.378Z,83.10
2022-12-22T11:37:43.303Z,77.60
2022-12-22T11:40:40.207Z,74.00
2022-12-22T11:43:52.568Z,80.00
2022-12-22T11:47:04.880Z,82.70
2022-12-22T11:49:47.432Z,78.30
2022-12-22T11:52:27.261Z,89.10
2022-12-22T11:55:20.518Z,95.60
2022-12-22T11:58:17.007Z,77.80
2022-12-22T12:01:14.130Z,101.50
2022-12-22T12:04:03.823Z,87.20
2022-12-22T12:07:01.372Z,85.70
2022-12-22T12:09:43.526Z,102.00
2022-12-22T12:12:48.802Z,81.30
2022-12-22T12:15:31.005Z,88.50
2022-12-22T12:18:18.183Z,86.30
2022-12-22T12:21:22.347Z,85.40
2022-12-22T12:24:07.289Z,87.00
2022-12-22T12:26:54.559Z,76.70
2022-12-22T12:29:28.155Z,85.50
2022-12-22T12:32:07.605Z,79.60
2022-12-22T12:34:42.906Z,91.00
2022-12-22T12:37:21.395Z,83.00
2022-12-22T12:40:14.976Z,84.10
2022-12-22T12:42:45.870Z,68.70
2022-12-22T12:45:34.818Z,82.10
2022-12-22T12:48:21.982Z,89.80
2022-12-22T12:50:57.441Z,101.70
2022-12-22T12:53:30.183Z,85.20
2022-12-22T12:55:59.873Z,92.70
2022-12-22T12:58:40.201Z,89.60
2022-12-22T13:01:27.158Z,81.80
2022-12-22T13:04:05.173Z,91.80
2022-12-22T13:06:49.234Z,74.70
2022-12-22T13:12:41.520Z,75.20
2022-12-22T13:15:33.724Z,70.90
2022-12-22T13:18:25.568Z,74.00
2022-12-22T13:21:18.666Z,77.20
2022-12-22T13:24:23.462Z,80.20
2022-12-22T13:26:47.322Z,82.70
2022-12-22T13:29:19.477Z,75.60
2022-12-22T13:31:58.138Z,78.40
2022-12-22T13:35:04.837Z,84.20
2022-12-22T13:37:42.170Z,86.90
2022-12-22T13:40:31.535Z,70.30
2022-12-22T13:43:15.633Z,72.40
2022-12-22T13:45:48.545Z,69.40
2022-12-22T13:48:21.056Z,68.50
2022-12-22T13:51:09.065Z,77.40
2022-12-22T13:56:57.205Z,72.50
2022-12-22T13:59:33.181Z,72.00
2022-12-22T14:02:09.031Z,76.00
2022-12-22T14:04:40.742Z,75.00
2022-12-22T14:07:17.716Z,70.80
2022-12-22T14:09:48.698Z,81.90
2022-12-22T14:12:21.242Z,80.10
2022-12-22T14:14:52.003Z,74.90
2022-12-22T14:17:28.939Z,78.10
2022-12-22T14:20:01.733Z,78.00
2022-12-22T14:22:43.442Z,78.30
2022-12-22T14:25:38.606Z,82.10
2022-12-22T14:28:17.701Z,77.40
2022-12-22T14:30:50.831Z,87.50
2022-12-22T14:33:28.281Z,91.60
2022-12-22T14:36:27.226Z,82.90
2022-12-22T14:39:02.369Z,87.20
2022-12-22T14:41:54.949Z,91.20
2022-12-22T14:44:24.028Z,86.40
2022-12-22T14:47:17.846Z,101.80
2022-12-22T14:50:16.952Z,86.50
2022-12-22T14:52:51.251Z,83.60
2022-12-22T14:55:27.990Z,87.00
2022-12-22T14:58:15.443Z,77.70
2022-12-22T15:00:47.093Z,79.60
2022-12-22T15:03:34.808Z,83.70
2022-12-22T15:06:26.911Z,75.20
2022-12-22T15:09:12.143Z,75.70
2022-12-22T15:11:42.385Z,84.70
2022-12-22T15:16:50.924Z,76.50
2022-12-22T15:19:22.724Z,80.60
2022-12-22T15:21:51.925Z,74.60
2022-12-22T15:24:20.596Z,82.00
2022-12-22T15:26:49.164Z,84.60
2022-12-22T15:29:18.096Z,87.70
2022-12-22T15:31:46.715Z,80.90
2022-12-22T15:34:26.304Z,90.10
2022-12-22T15:36:55.291Z,78.20
2022-12-22T15:39:24.872Z,83.60
2022-12-22T15:41:53.381Z,84.00
2022-12-22T15:44:22.580Z,79.50
2022-12-22T15:46:56.506Z,83.70
2022-12-22T15:49:28.472Z,82.90
2022-12-22T15:52:01.541Z,80.90
2022-12-22T15:54:33.413Z,90.90
2022-12-22T15:57:03.000Z,83.50
2022-12-22T15:59:31.799Z,85.60
2022-12-22T16:02:02.467Z,83.60
2022-12-22T16:04:31.267Z,90.50
2022-12-22T16:06:59.912Z,89.90
2022-12-22T16:09:38.365Z,91.90
2022-12-22T16:12:16.481Z,90.70
2022-12-22T16:14:51.039Z,84.70
2022-12-22T16:17:23.856Z,85.60
2022-12-22T16:19:52.247Z,83.60
2022-12-22T16:22:28.234Z,82.20
2022-12-22T16:24:56.996Z,113.70
2022-12-22T16:27:25.558Z,106.70
2022-12-22T16:29:54.761Z,105.00
2022-12-22T16:32:32.364Z,97.50
2022-12-22T16:35:09.658Z,102.50
2022-12-22T16:37:38.541Z,94.10
2022-12-22T16:40:08.122Z,107.10
2022-12-22T16:45:28.884Z,105.90
2022-12-22T16:48:05.145Z,100.70
2022-12-22T16:50:34.326Z,109.40
2022-12-22T16:53:05.355Z,111.00
2022-12-22T16:55:36.003Z,136.50
2022-12-22T16:58:12.957Z,112.50
2022-12-22T17:00:44.983Z,114.70
2022-12-22T17:03:28.883Z,115.40
2022-12-22T17:06:03.673Z,108.50
2022-12-22T17:08:42.276Z,101.00
2022-12-22T17:11:20.336Z,117.10
2022-12-22T17:13:50.775Z,109.80
2022-12-22T17:16:22.261Z,133.60
2022-12-22T17:18:50.767Z,112.20
2022-12-22T17:21:19.941Z,119.20
2022-12-22T17:23:54.977Z,113.20
2022-12-22T17:26:25.792Z,110.30
2022-12-22T17:28:54.074Z,145.90
2022-12-22T17:31:23.244Z,124.90
2022-12-22T17:33:51.797Z,119.80
2022-12-22T17:36:32.214Z,118.60
2022-12-22T17:39:01.638Z,126.60
2022-12-22T17:41:30.710Z,128.30
2022-12-22T17:44:00.493Z,120.20
2022-12-22T17:46:29.325Z,142.00
2022-12-22T17:48:57.822Z,141.50
2022-12-22T17:51:29.291Z,134.00
2022-12-22T17:53:59.200Z,118.70
2022-12-22T17:56:29.718Z,131.60
2022-12-22T17:58:58.184Z,141.50
2022-12-22T18:01:32.561Z,138.40
2022-12-22T18:04:01.244Z,125.50
2022-12-22T18:06:34.149Z,129.70
2022-12-22T18:09:04.161Z,117.80
2022-12-22T18:11:32.736Z,110.50
2022-12-22T18:14:01.454Z,110.60
2022-12-22T18:16:30.160Z,107.00
2022-12-22T18:18:59.260Z,103.60
2022-12-22T18:21:28.856Z,111.40
2022-12-22T18:23:57.605Z,107.20
2022-12-22T18:26:29.000Z,112.10
2022-12-22T18:28:58.003Z,111.20
2022-12-22T18:31:28.781Z,119.20
2022-12-22T18:33:57.195Z,110.60
2022-12-22T18:36:31.904Z,124.70
2022-12-22T18:39:01.775Z,108.50
2022-12-22T18:41:35.016Z,104.20
2022-12-22T18:44:03.920Z,89.10
2022-12-22T18:46:33.238Z,93.90
2022-12-22T18:49:05.634Z,97.90
2022-12-22T18:51:34.647Z,80.10
2022-12-22T18:54:03.450Z,105.30
2022-12-22T18:56:32.166Z,114.70
2022-12-22T18:59:00.535Z,121.20
2022-12-22T19:01:29.348Z,120.70
2022-12-22T19:03:59.335Z,112.70
2022-12-22T19:06:27.799Z,107.60
2022-12-22T19:08:56.247Z,102.30
2022-12-22T19:11:33.880Z,120.00
2022-12-22T19:14:02.310Z,120.40
2022-12-22T19:16:30.803Z,118.50
2022-12-22T19:19:01.785Z,129.20
2022-12-22T19:21:30.162Z,109.90
2022-12-22T19:23:58.371Z,122.40
2022-12-22T19:26:27.227Z,120.00
2022-12-22T19:29:01.289Z,98.30
2022-12-22T19:31:33.181Z,110.30
2022-12-22T19:34:05.771Z,97.40
2022-12-22T19:36:34.597Z,110.80
2022-12-22T19:39:05.200Z,87.80
2022-12-22T19:41:51.698Z,109.20
2022-12-22T19:44:29.220Z,108.40
2022-12-22T19:46:59.531Z,120.10
2022-12-22T19:49:29.383Z,132.20
2022-12-22T19:51:58.196Z,134.50
2022-12-22T19:54:28.220Z,124.70
2022-12-22T19:56:56.628Z,109.10
2022-12-22T19:59:38.701Z,123.70
2022-12-22T20:02:32.174Z,132.30
2022-12-22T20:05:01.281Z,131.10
2022-12-22T20:07:33.116Z,128.90
2022-12-22T20:10:01.611Z,111.10
2022-12-22T20:12:33.746Z,123.10
2022-12-22T20:15:13.518Z,114.30
2022-12-22T20:17:42.325Z,114.20
2022-12-22T20:20:20.516Z,106.90
2022-12-22T20:22:55.575Z,107.30
2022-12-22T20:25:28.263Z,106.70
2022-12-22T20:27:56.869Z,111.30
2022-12-22T20:30:28.964Z,115.70
2022-12-22T20:32:57.389Z,106.10
2022-12-22T20:35:26.193Z,114.40
2022-12-22T20:37:54.461Z,115.80
2022-12-22T20:40:26.278Z,125.20
2022-12-22T20:42:54.983Z,113.80
2022-12-22T20:45:26.988Z,120.30
2022-12-22T20:47:55.857Z,103.60
2022-12-22T20:50:27.090Z,113.90
2022-12-22T20:52:57.506Z,106.20
2022-12-22T20:55:27.815Z,122.70
2022-12-22T20:57:56.042Z,125.10
2022-12-22T21:00:27.462Z,124.40
2022-12-22T21:02:56.201Z,112.30
2022-12-22T21:05:24.729Z,119.00
2022-12-22T21:07:52.795Z,110.60
2022-12-22T21:10:24.014Z,122.20
2022-12-22T21:12:52.721Z,111.80
2022-12-22T21:15:28.364Z,112.30
2022-12-22T21:17:58.750Z,104.30
2022-12-22T21:20:29.373Z,102.20
2022-12-22T21:22:57.535Z,95.10
2022-12-22T21:25:26.532Z,92.60
2022-12-22T21:27:54.723Z,85.30
2022-12-22T21:30:26.097Z,96.10
2022-12-22T21:32:54.963Z,88.20
2022-12-22T21:35:34.453Z,95.50
2022-12-22T21:38:03.135Z,81.80
2022-12-22T21:40:32.756Z,97.30
2022-12-22T21:43:01.001Z,101.50
2022-12-22T21:45:31.967Z,92.20
2022-12-22T21:48:01.095Z,87.60
2022-12-22T21:50:34.787Z,93.60
2022-12-22T21:53:03.125Z,89.50
2022-12-22T21:55:34.636Z,97.80
2022-12-22T21:58:04.835Z,88.00
2022-12-22T22:00:34.902Z,91.10
2022-12-22T22:03:03.977Z,94.70
2022-12-22T22:05:35.326Z,92.10
2022-12-22T22:08:06.591Z,90.20
2022-12-22T22:10:40.537Z,93.70
2022-12-22T22:13:11.880Z,82.80
2022-12-22T22:15:40.265Z,90.90
2022-12-22T22:18:16.751Z,85.70
2022-12-22T22:20:45.609Z,78.80
2022-12-22T22:23:15.075Z,89.60
2022-12-22T22:25:43.341Z,91.70
2022-12-22T22:28:11.676Z,95.30
2022-12-22T22:30:42.196Z,91.60
2022-12-22T22:33:10.735Z,88.90
2022-12-22T22:35:40.775Z,97.00
2022-12-22T22:38:17.649Z,98.10
2022-12-22T22:40:47.469Z,90.00
2022-12-22T22:43:15.760Z,97.20
2022-12-22T22:45:44.008Z,93.30
2022-12-22T22:48:23.176Z,97.50
2022-12-22T22:50:51.928Z,97.00
2022-12-22T22:53:20.171Z,97.30
2022-12-22T22:55:48.309Z,96.20
2022-12-22T22:58:16.338Z,91.90
2022-12-22T23:00:44.351Z,92.90
2022-12-22T23:03:12.379Z,85.00
2022-12-22T23:05:40.428Z,93.50
2022-12-22T23:08:08.538Z,91.50
2022-12-22T23:10:41.572Z,97.90
2022-12-22T23:13:10.110Z,79.80
2022-12-22T23:15:38.583Z,87.10
2022-12-22T23:18:06.871Z,87.90
2022-12-22T23:20:35.388Z,83.70
2022-12-22T23:23:03.651Z,88.20
2022-12-22T23:25:32.145Z,90.80
2022-12-22T23:28:00.130Z,94.50
2022-12-22T23:30:28.210Z,89.30
2022-12-22T23:32:56.205Z,93.90
2022-12-22T23:35:24.246Z,94.90
2022-12-22T23:37:52.407Z,90.80
2022-12-22T23:43:11.723Z,103.00
2022-12-22T23:45:40.725Z,90.70
2022-12-22T23:48:09.585Z,95.50
2022-12-22T23:50:37.689Z,102.30
2022-12-22T23:53:06.008Z,97.60
2022-12-22T23:55:34.378Z,93.90
2022-12-22T23:58:02.491Z,96.90
